Onweer radar Meer informatie blitzortung!


Regen radar Meer informatie rain snow radar



METAR rapporten vliegvelden

   
EHRD - Rotterdam
Gewijzigd: 27-06-2019 02:25
Bewolking  
Bewolking  
   Wind: NNO 8 km/h
Wind: NNO 8 km/h
Temperatuur: 16°C
Dauwpunt: 13°C
Vochtigheid: 83%
Barometer: 1028 hPa
Bewolking: Overcast
Zicht: meer dan 10 km
Bewolking: Bewolking 1500 ft
EHRD 270025Z AUTO 02008KT 340V060 9999 OVC015 16/13 Q1028 NOSIG
EBAW - Antwerpen
Gewijzigd: 27-06-2019 02:20
Helder  
Helder  
   Wind: NO 9 km/h
Wind: NO 9 km/h
Temperatuur: 16°C
Dauwpunt: 14°C
Vochtigheid: 88%
Barometer: 1027 hPa
Zicht: meer dan 10 km
Bewolking: Helder ft
EBAW 270020Z AUTO 04009KT 360V070 CAVOK 16/14 Q1027
EHAM - Amsterdam
Gewijzigd: 27-06-2019 02:25
Grotendeels bewolkt  
Grotendeels bewolkt  
   Wind: NNO 9 km/h
Wind: NNO 9 km/h
Temperatuur: 15°C
Dauwpunt: 12°C
Vochtigheid: 82%
Barometer: 1028 hPa
Bewolking: Mostly Cloudy
Zicht: meer dan 10 km
Bewolking: Grotendeels bewolkt 1500 ft
EHAM 270025Z 02009KT 330V050 9999 BKN015 15/12 Q1028 NOSIG
EHEH - Eindhoven
Gewijzigd: 27-06-2019 02:25
Helder  
Helder  
   Wind: NNO 11 km/h
Wind: NNO 11 km/h
Temperatuur: 15°C
Dauwpunt: 13°C
Vochtigheid: 88%
Barometer: 1027 hPa
Bewolking: Clear
Zicht: meer dan 10 km
Bewolking: Helder ft
EHEH 270025Z AUTO 02011KT 9999 NCD 15/13 Q1027 BLU
  

Script ontwikkeld door  Saratoga-weather.org Aangepast voor de template door  Weerstation Leuven

U vindt ons ook hier:

Het Weer Aktueel

Apparatuur in gebruik:

Weerstation
Davis VP2

Weerprogramma
Cumulus

Weercomputer
Pipo X9 with Windows 10

Davis VP2

Cumulus

Pipo X9 with Windows 10